Terminal Aerodrome Forecast
Issued by NWS

Home | Current Version | Previous Version | Text Only | Print | Product List | Glossary On
Versions: 1 2 3 4 5 6 7 8 9 10 11 12 13 14 15
000
FTAK31 PANC 051139
TAFAVD
TAF
PAVD 051139Z 0512/0612 VRB03KT P6SM VCSH SCT025 OVC060
     FM060000 VRB04KT 5SM -RA BR OVC025
      AMD LTD TO CLD VIS AND WIND=

USA.gov is the U.S. government's official web portal to all federal, state and local government web resources and services.